Time;durP1;ratioP1;P1;durP2;ratioP2;P2;SDS_P1;SDS_P2;PMS_P1;PMS_P2;Temp;Humidity;BMP_temperature;BMP_pressure;BME280_temperature;BME280_humidity;BME280_pressure;Samples;Min_cycle;Max_cycle;Signal;HPM_P1;HPM_P2
2023/12/25 00:04:07;;;;;;;12.27;7.43;;;;;;;;;;10522483;28;20045;-82
2023/12/25 00:09:08;;;;;;;18.17;9.70;;;;;;;;;;10531608;28;20088;-78
2023/12/25 00:14:09;;;;;;;21.00;13.30;;;;;;;;;;10524057;28;20051;-79
2023/12/25 00:19:10;;;;;;;21.77;12.70;;;;;;;;;;10521225;28;20044;-78
2023/12/25 00:24:11;;;;;;;30.50;19.20;;;;;;;;;;10511508;28;20032;-81
2023/12/25 00:29:12;;;;;;;23.73;14.57;;;;;;;;;;10521170;28;20483;-81
2023/12/25 00:34:13;;;;;;;26.17;14.40;;;;;;;;;;10519212;28;20043;-79
2023/12/25 00:39:14;;;;;;;22.87;14.70;;;;;;;;;;10523186;28;20493;-84
2023/12/25 00:44:15;;;;;;;24.27;14.70;;;;;;;;;;10513402;28;20037;-81
2023/12/25 00:49:18;;;;;;;24.33;14.47;;;;;;;;;;10526023;28;20040;-80
2023/12/25 00:54:20;;;;;;;22.00;13.17;;;;;;;;;;10515745;28;20115;-80
2023/12/25 00:59:21;;;;;;;24.70;15.07;;;;;;;;;;10539279;28;20166;-80
2023/12/25 01:04:22;;;;;;;28.90;17.70;;;;;;;;;;10524890;28;20036;-84
2023/12/25 01:09:23;;;;;;;24.97;15.83;;;;;;;;;;10532908;28;20119;-83
2023/12/25 01:14:24;;;;;;;26.03;16.50;;;;;;;;;;10519643;28;20020;-80
2023/12/25 01:19:25;;;;;;;26.57;16.63;;;;;;;;;;10523030;28;20037;-80
2023/12/25 01:24:26;;;;;;;24.27;13.50;;;;;;;;;;10521278;28;20032;-80
2023/12/25 01:29:27;;;;;;;30.47;18.73;;;;;;;;;;10519281;28;20038;-80
2023/12/25 01:34:34;;;;;;;14.30;9.10;;;;;;;;;;10526201;28;20036;-81
2023/12/25 01:39:35;;;;;;;14.50;8.73;;;;;;;;;;10516861;28;20048;-79
2023/12/25 01:44:36;;;;;;;13.60;8.43;;;;;;;;;;10522736;28;20380;-81
2023/12/25 01:49:37;;;;;;;16.30;9.97;;;;;;;;;;10508311;28;20096;-81
2023/12/25 01:54:39;;;;;;;16.53;10.40;;;;;;;;;;10526111;28;20034;-79
2023/12/25 01:59:40;;;;;;;16.53;10.77;;;;;;;;;;10515918;28;20063;-83
2023/12/25 02:04:41;;;;;;;18.20;11.70;;;;;;;;;;10509577;22;20114;-79
2023/12/25 02:09:48;;;;;;;14.13;8.47;;;;;;;;;;10482664;28;20072;-81
2023/12/25 02:14:49;;;;;;;14.67;9.13;;;;;;;;;;10465443;28;20139;-79
2023/12/25 02:19:51;;;;;;;12.67;7.30;;;;;;;;;;10485291;28;20464;-80
2023/12/25 02:24:56;;;;;;;8.83;5.30;;;;;;;;;;10478129;28;20050;-82
2023/12/25 02:29:57;;;;;;;9.98;5.50;;;;;;;;;;10444860;28;20069;-82
2023/12/25 02:34:58;;;;;;;9.77;5.80;;;;;;;;;;10445797;28;20471;-81
2023/12/25 02:40:06;;;;;;;9.73;5.87;;;;;;;;;;10443853;28;20051;-81
2023/12/25 02:45:07;;;;;;;10.03;6.63;;;;;;;;;;10451793;28;20025;-83
2023/12/25 02:50:08;;;;;;;12.27;7.17;;;;;;;;;;10451967;28;20384;-79
2023/12/25 02:55:09;;;;;;;11.27;7.77;;;;;;;;;;10451051;28;20044;-84
2023/12/25 03:00:10;;;;;;;12.43;7.83;;;;;;;;;;10451566;28;20033;-80
2023/12/25 03:05:11;;;;;;;10.70;7.80;;;;;;;;;;10451298;28;20184;-80
2023/12/25 03:10:12;;;;;;;10.10;8.10;;;;;;;;;;10451565;28;20147;-79
2023/12/25 03:15:19;;;;;;;10.87;6.70;;;;;;;;;;10450031;28;20135;-79
2023/12/25 03:20:23;;;;;;;10.40;7.83;;;;;;;;;;10450772;28;20053;-79
2023/12/25 03:25:24;;;;;;;11.30;8.13;;;;;;;;;;10450853;28;20043;-79
2023/12/25 03:30:25;;;;;;;10.90;7.80;;;;;;;;;;10451100;28;20040;-79
2023/12/25 03:35:26;;;;;;;12.60;8.77;;;;;;;;;;10448832;28;20032;-80
2023/12/25 03:40:27;;;;;;;7.33;6.00;;;;;;;;;;10450813;28;20041;-79
2023/12/25 03:45:28;;;;;;;6.83;4.67;;;;;;;;;;10450071;28;20706;-79
2023/12/25 03:50:29;;;;;;;6.47;3.73;;;;;;;;;;10449691;28;20047;-81
2023/12/25 03:55:30;;;;;;;5.23;3.60;;;;;;;;;;10450553;28;20116;-80
2023/12/25 04:00:31;;;;;;;5.37;4.17;;;;;;;;;;10449387;28;20049;-82
2023/12/25 04:05:32;;;;;;;9.90;6.53;;;;;;;;;;10449326;28;20593;-79
2023/12/25 04:10:34;;;;;;;8.43;6.07;;;;;;;;;;10449324;28;20116;-82
2023/12/25 04:15:35;;;;;;;11.43;7.97;;;;;;;;;;10430421;28;20039;-81
2023/12/25 04:20:36;;;;;;;11.00;9.00;;;;;;;;;;10448049;28;20499;-83
2023/12/25 04:25:37;;;;;;;13.10;8.90;;;;;;;;;;10493573;22;20134;-79
2023/12/25 04:30:38;;;;;;;11.83;8.73;;;;;;;;;;10438268;28;20021;-80
2023/12/25 04:35:39;;;;;;;10.37;7.80;;;;;;;;;;10428654;28;20112;-79
2023/12/25 04:40:40;;;;;;;9.77;7.37;;;;;;;;;;10438828;28;20455;-80
2023/12/25 04:45:41;;;;;;;10.27;6.00;;;;;;;;;;10432497;28;20079;-79
2023/12/25 04:50:42;;;;;;;6.47;4.07;;;;;;;;;;10439689;28;20423;-79
2023/12/25 04:55:43;;;;;;;5.97;2.90;;;;;;;;;;10441724;28;20033;-80
2023/12/25 05:00:45;;;;;;;7.03;3.80;;;;;;;;;;10437593;28;20044;-83
2023/12/25 05:05:47;;;;;;;5.00;2.73;;;;;;;;;;10439355;28;20025;-81
2023/12/25 05:10:48;;;;;;;5.70;3.17;;;;;;;;;;10431809;28;20040;-85
2023/12/25 05:15:49;;;;;;;9.50;3.17;;;;;;;;;;10432441;28;20028;-79
2023/12/25 05:20:50;;;;;;;9.53;4.37;;;;;;;;;;10441504;28;20127;-79
2023/12/25 05:25:51;;;;;;;6.13;3.67;;;;;;;;;;10443779;28;20073;-81
2023/12/25 05:30:52;;;;;;;4.70;2.27;;;;;;;;;;10443399;28;20679;-83
2023/12/25 05:35:53;;;;;;;4.70;2.57;;;;;;;;;;10439481;28;20033;-83
2023/12/25 05:40:54;;;;;;;3.40;2.13;;;;;;;;;;10443275;28;20141;-78
2023/12/25 05:45:55;;;;;;;3.10;1.90;;;;;;;;;;10445069;28;20028;-79
2023/12/25 05:50:56;;;;;;;3.20;1.70;;;;;;;;;;10439048;28;20598;-80
2023/12/25 05:55:58;;;;;;;6.60;3.20;;;;;;;;;;10443850;28;20413;-79
2023/12/25 06:00:59;;;;;;;7.43;3.53;;;;;;;;;;10431597;28;20045;-79
2023/12/25 06:06:07;;;;;;;7.07;3.55;;;;;;;;;;10440304;28;20439;-82
2023/12/25 06:11:08;;;;;;;5.05;2.70;;;;;;;;;;10438086;28;20380;-79
2023/12/25 06:16:09;;;;;;;7.18;3.33;;;;;;;;;;10436306;28;20032;-78
2023/12/25 06:21:13;;;;;;;10.53;4.37;;;;;;;;;;10451627;28;20040;-80
2023/12/25 06:26:14;;;;;;;13.75;4.57;;;;;;;;;;10431556;28;20053;-79
2023/12/25 06:31:15;;;;;;;13.57;4.17;;;;;;;;;;10439048;28;20033;-79
2023/12/25 06:36:16;;;;;;;4.90;1.65;;;;;;;;;;10439826;28;20036;-82
2023/12/25 06:41:17;;;;;;;2.58;1.65;;;;;;;;;;10438574;28;20055;-80
2023/12/25 06:46:18;;;;;;;3.50;1.73;;;;;;;;;;10449199;28;20037;-79
2023/12/25 06:51:19;;;;;;;3.33;1.90;;;;;;;;;;10437724;28;20084;-79
2023/12/25 06:56:22;;;;;;;4.20;2.05;;;;;;;;;;10436502;28;20074;-79
2023/12/25 07:01:24;;;;;;;3.03;1.77;;;;;;;;;;10438100;28;20079;-80
2023/12/25 07:06:25;;;;;;;3.90;2.25;;;;;;;;;;10442780;28;20400;-80
2023/12/25 07:11:27;;;;;;;7.67;3.83;;;;;;;;;;10442877;28;20039;-81
2023/12/25 07:16:29;;;;;;;6.73;3.43;;;;;;;;;;10421872;28;20408;-80
2023/12/25 07:21:30;;;;;;;7.83;3.87;;;;;;;;;;10444517;28;20045;-83
2023/12/25 07:26:31;;;;;;;9.63;4.63;;;;;;;;;;10436423;28;20056;-79
2023/12/25 07:31:38;;;;;;;4.67;2.73;;;;;;;;;;10440539;28;20918;-81
2023/12/25 07:36:39;;;;;;;4.73;2.80;;;;;;;;;;10416894;28;20041;-81
2023/12/25 07:41:46;;;;;;;4.20;2.13;;;;;;;;;;10431154;28;20053;-83
2023/12/25 07:46:47;;;;;;;3.47;1.87;;;;;;;;;;10425740;28;20025;-79
2023/12/25 07:51:48;;;;;;;4.50;2.50;;;;;;;;;;10443089;28;20108;-81
2023/12/25 07:56:49;;;;;;;8.63;3.45;;;;;;;;;;10438717;28;20483;-79
2023/12/25 08:01:50;;;;;;;11.18;5.15;;;;;;;;;;10433653;28;20033;-78
2023/12/25 08:06:51;;;;;;;18.57;6.23;;;;;;;;;;10440184;28;20028;-79
2023/12/25 08:11:52;;;;;;;16.52;6.43;;;;;;;;;;10436937;28;20025;-81
2023/12/25 08:16:53;;;;;;;16.00;6.27;;;;;;;;;;10436937;28;20033;-83
2023/12/25 08:21:54;;;;;;;14.80;7.23;;;;;;;;;;10440630;28;20052;-80
2023/12/25 08:26:55;;;;;;;10.13;5.40;;;;;;;;;;10434349;28;20454;-80
2023/12/25 08:31:56;;;;;;;9.67;5.00;;;;;;;;;;10428406;28;20053;-84
2023/12/25 08:36:57;;;;;;;25.87;11.73;;;;;;;;;;10433813;28;20044;-82
2023/12/25 08:42:00;;;;;;;15.33;7.00;;;;;;;;;;10434174;28;20053;-80
2023/12/25 08:47:03;;;;;;;13.67;6.70;;;;;;;;;;10434004;28;20476;-82
2023/12/25 08:52:04;;;;;;;9.33;5.67;;;;;;;;;;10430447;28;20485;-81
2023/12/25 08:57:05;;;;;;;16.10;7.47;;;;;;;;;;10441157;28;20041;-84
2023/12/25 09:02:06;;;;;;;11.80;6.00;;;;;;;;;;10441442;28;20389;-82
2023/12/25 09:07:07;;;;;;;13.20;6.40;;;;;;;;;;10436469;28;20025;-82
2023/12/25 09:12:08;;;;;;;12.93;6.50;;;;;;;;;;10431773;28;20032;-79
2023/12/25 09:17:16;;;;;;;16.93;8.40;;;;;;;;;;10417869;28;20040;-79
2023/12/25 09:22:17;;;;;;;20.50;8.63;;;;;;;;;;10436045;28;20068;-80
2023/12/25 09:27:18;;;;;;;17.80;9.30;;;;;;;;;;10417644;28;20104;-81
2023/12/25 09:32:19;;;;;;;16.90;9.43;;;;;;;;;;10429779;28;20048;-82
2023/12/25 09:37:20;;;;;;;17.03;8.53;;;;;;;;;;10427138;28;20036;-79
2023/12/25 09:42:28;;;;;;;10.43;5.40;;;;;;;;;;10437391;28;20052;-80
2023/12/25 09:47:29;;;;;;;10.30;5.27;;;;;;;;;;10410443;28;20037;-81
2023/12/25 09:52:30;;;;;;;11.23;6.40;;;;;;;;;;10439861;28;20037;-82
2023/12/25 09:57:32;;;;;;;13.27;6.28;;;;;;;;;;10440010;28;20049;-81
2023/12/25 10:02:45;;;;;;;11.20;5.57;;;;;;;;;;10442196;28;20053;-80
2023/12/25 10:07:46;;;;;;;10.80;5.75;;;;;;;;;;10431897;28;20037;-81
2023/12/25 10:12:47;;;;;;;14.47;6.27;;;;;;;;;;10434183;28;20029;-82
2023/12/25 10:17:48;;;;;;;18.50;7.17;;;;;;;;;;10438406;28;20411;-80
2023/12/25 10:22:49;;;;;;;13.00;6.70;;;;;;;;;;10421008;28;20063;-79
2023/12/25 10:27:50;;;;;;;18.02;8.95;;;;;;;;;;10428846;28;20033;-80
2023/12/25 10:33:08;;;;;;;12.83;6.33;;;;;;;;;;10428253;28;20044;-83
2023/12/25 10:38:09;;;;;;;13.73;7.03;;;;;;;;;;10444947;28;20543;-82
2023/12/25 10:43:10;;;;;;;18.67;9.03;;;;;;;;;;10445245;28;20052;-80
2023/12/25 10:48:11;;;;;;;11.87;6.30;;;;;;;;;;10427070;28;20522;-79
2023/12/25 10:53:16;;;;;;;12.27;5.72;;;;;;;;;;10444377;28;20120;-81
2023/12/25 10:58:17;;;;;;;10.23;5.07;;;;;;;;;;10444634;28;20025;-81
2023/12/25 11:03:18;;;;;;;9.50;5.00;;;;;;;;;;10448193;28;20435;-82
2023/12/25 11:08:20;;;;;;;11.65;5.72;;;;;;;;;;10452533;28;20025;-80
2023/12/25 11:13:23;;;;;;;10.48;4.93;;;;;;;;;;10440102;28;20056;-80
2023/12/25 11:18:24;;;;;;;14.88;6.85;;;;;;;;;;10446592;28;20091;-80
2023/12/25 11:23:25;;;;;;;12.05;5.43;;;;;;;;;;10438292;28;20120;-81
2023/12/25 11:28:27;;;;;;;11.18;5.28;;;;;;;;;;10450439;28;20036;-79
2023/12/25 11:33:28;;;;;;;22.77;8.52;;;;;;;;;;10438217;28;20028;-79
2023/12/25 11:38:29;;;;;;;14.35;6.68;;;;;;;;;;10450544;28;20049;-80
2023/12/25 11:43:31;;;;;;;17.35;7.90;;;;;;;;;;10432479;28;20029;-81
2023/12/25 11:48:32;;;;;;;20.77;8.70;;;;;;;;;;10450953;28;20400;-80
2023/12/25 11:53:37;;;;;;;23.85;10.30;;;;;;;;;;10450259;28;20025;-81
2023/12/25 11:58:40;;;;;;;30.35;11.63;;;;;;;;;;10449820;28;20048;-82
2023/12/25 12:03:52;;;;;;;24.23;10.75;;;;;;;;;;10449975;28;20485;-80
2023/12/25 12:08:53;;;;;;;36.65;16.73;;;;;;;;;;10450836;28;20069;-85
2023/12/25 12:13:54;;;;;;;59.43;30.03;;;;;;;;;;10450894;28;20029;-83
2023/12/25 12:18:55;;;;;;;56.95;29.13;;;;;;;;;;10451518;28;20043;-82
2023/12/25 12:23:56;;;;;;;57.15;28.75;;;;;;;;;;10436134;28;20516;-81
2023/12/25 12:28:57;;;;;;;22.23;10.07;;;;;;;;;;10449097;28;20340;-82
2023/12/25 12:33:59;;;;;;;18.50;10.67;;;;;;;;;;10448656;28;20033;-83
2023/12/25 12:39:00;;;;;;;19.87;8.03;;;;;;;;;;10448389;28;20374;-83
2023/12/25 12:44:01;;;;;;;21.67;10.47;;;;;;;;;;10448793;28;20563;-82
2023/12/25 12:49:02;;;;;;;16.67;9.40;;;;;;;;;;10448424;28;20032;-82
2023/12/25 12:54:03;;;;;;;16.67;7.20;;;;;;;;;;10447507;28;20401;-83
2023/12/25 12:59:04;;;;;;;13.83;7.27;;;;;;;;;;10447698;28;20037;-82
2023/12/25 13:04:05;;;;;;;16.60;8.57;;;;;;;;;;10447164;28;20059;-81
2023/12/25 13:09:06;;;;;;;29.03;14.07;;;;;;;;;;10447867;28;20033;-81
2023/12/25 13:14:07;;;;;;;21.30;10.50;;;;;;;;;;10447938;28;20035;-82
2023/12/25 13:19:08;;;;;;;38.30;18.83;;;;;;;;;;10447711;28;20388;-81
2023/12/25 13:24:09;;;;;;;31.60;15.70;;;;;;;;;;10446106;28;20084;-80
2023/12/25 13:29:11;;;;;;;53.97;30.33;;;;;;;;;;10446452;28;20028;-81
2023/12/25 13:34:12;;;;;;;46.20;21.63;;;;;;;;;;10447160;28;20033;-82
2023/12/25 13:39:19;;;;;;;26.70;14.33;;;;;;;;;;10446089;28;20033;-79
2023/12/25 13:44:20;;;;;;;32.30;12.73;;;;;;;;;;10429241;28;20029;-80
2023/12/25 13:49:21;;;;;;;55.33;21.33;;;;;;;;;;10446296;28;20057;-81
2023/12/25 13:54:22;;;;;;;37.22;15.55;;;;;;;;;;10446195;28;20025;-82
2023/12/25 13:59:23;;;;;;;29.07;12.63;;;;;;;;;;10446789;28;20068;-80
2023/12/25 14:04:24;;;;;;;33.87;12.73;;;;;;;;;;10445509;28;20033;-81
2023/12/25 14:09:25;;;;;;;27.10;12.33;;;;;;;;;;10428016;28;20029;-83
2023/12/25 14:14:26;;;;;;;29.95;12.25;;;;;;;;;;10446240;28;20029;-80
2023/12/25 14:19:27;;;;;;;27.27;10.97;;;;;;;;;;10445515;28;20512;-83
2023/12/25 14:24:29;;;;;;;38.17;12.60;;;;;;;;;;10444890;28;20061;-82
2023/12/25 14:29:30;;;;;;;23.63;6.90;;;;;;;;;;10445207;28;20472;-80
2023/12/25 14:34:32;;;;;;;18.43;7.87;;;;;;;;;;10445245;28;20079;-80
2023/12/25 14:39:39;;;;;;;31.15;11.98;;;;;;;;;;10452729;28;20500;-81
2023/12/25 14:44:40;;;;;;;31.27;11.77;;;;;;;;;;10417246;28;20069;-80
2023/12/25 14:49:41;;;;;;;23.40;8.73;;;;;;;;;;10452942;28;20391;-81
2023/12/25 14:54:42;;;;;;;17.23;7.33;;;;;;;;;;10453652;28;20532;-80
2023/12/25 14:59:43;;;;;;;58.03;19.23;;;;;;;;;;10452730;28;20124;-80
2023/12/25 15:04:44;;;;;;;14.93;6.50;;;;;;;;;;10452125;28;20743;-83
2023/12/25 15:09:45;;;;;;;16.00;7.50;;;;;;;;;;10452383;28;20059;-82
2023/12/25 15:14:53;;;;;;;3.77;2.37;;;;;;;;;;10452025;28;20089;-82
2023/12/25 15:19:54;;;;;;;6.13;3.37;;;;;;;;;;10451805;28;20476;-81
2023/12/25 15:24:55;;;;;;;4.67;2.90;;;;;;;;;;10451530;28;20129;-82
2023/12/25 15:29:56;;;;;;;13.60;6.73;;;;;;;;;;10433718;28;20040;-83
2023/12/25 15:34:57;;;;;;;11.47;4.80;;;;;;;;;;10451343;28;20029;-84
2023/12/25 15:39:58;;;;;;;22.47;11.07;;;;;;;;;;10451184;28;20119;-82
2023/12/25 15:44:59;;;;;;;9.33;5.00;;;;;;;;;;10451289;28;20040;-83
2023/12/25 15:50:00;;;;;;;9.93;5.07;;;;;;;;;;10449997;28;20429;-83
2023/12/25 15:55:01;;;;;;;14.33;7.13;;;;;;;;;;10449829;28;20602;-84
2023/12/25 16:00:03;;;;;;;17.03;7.73;;;;;;;;;;10450036;28;20640;-82
2023/12/25 16:05:04;;;;;;;15.23;7.60;;;;;;;;;;10451476;28;20029;-81
2023/12/25 16:10:05;;;;;;;42.40;19.67;;;;;;;;;;10450653;28;20029;-83
2023/12/25 16:15:06;;;;;;;29.67;12.37;;;;;;;;;;10431784;28;20036;-82
2023/12/25 16:20:08;;;;;;;14.87;6.93;;;;;;;;;;10448720;28;20029;-81
2023/12/25 16:25:09;;;;;;;18.70;8.13;;;;;;;;;;10449567;28;20053;-82
2023/12/25 16:30:10;;;;;;;24.87;11.87;;;;;;;;;;10448523;28;20032;-83
2023/12/25 16:35:11;;;;;;;34.13;17.17;;;;;;;;;;10445922;28;20167;-84
2023/12/25 16:40:13;;;;;;;39.40;21.70;;;;;;;;;;10415305;28;20154;-83
2023/12/25 16:45:14;;;;;;;47.03;25.63;;;;;;;;;;10436345;28;20155;-82
2023/12/25 16:50:15;;;;;;;33.70;21.07;;;;;;;;;;10444689;28;20036;-81
2023/12/25 16:55:17;;;;;;;34.90;21.17;;;;;;;;;;10448091;28;20567;-83
2023/12/25 17:00:19;;;;;;;41.50;25.07;;;;;;;;;;10422529;28;20059;-82
2023/12/25 17:05:32;;;;;;;39.63;22.47;;;;;;;;;;10432299;28;20080;-83
2023/12/25 17:16:25;;;;;;;30.67;16.87;;;;;;;;;;10434478;28;20048;-82
2023/12/25 17:27:13;;;;;;;28.73;15.90;;;;;;;;;;10434611;28;20124;-80
2023/12/25 17:32:19;;;;;;;21.50;10.93;;;;;;;;;;10418107;28;20035;-81
2023/12/25 17:37:20;;;;;;;16.43;9.80;;;;;;;;;;10424258;28;20033;-82
2023/12/25 17:42:22;;;;;;;13.93;8.00;;;;;;;;;;10411573;28;20041;-83
2023/12/25 17:53:06;;;;;;;15.80;7.83;;;;;;;;;;10317192;28;20043;-81
2023/12/25 17:58:07;;;;;;;12.23;6.20;;;;;;;;;;10405887;28;20492;-82
2023/12/25 18:03:18;;;;;;;10.90;6.70;;;;;;;;;;10428353;28;20187;-81
2023/12/25 18:08:19;;;;;;;11.73;6.87;;;;;;;;;;10445600;28;20034;-82
2023/12/25 18:13:20;;;;;;;13.90;8.03;;;;;;;;;;10435589;28;20025;-83
2023/12/25 18:18:22;;;;;;;11.60;6.97;;;;;;;;;;10426971;28;20040;-80
2023/12/25 18:23:23;;;;;;;15.20;9.57;;;;;;;;;;10426680;28;20488;-81
2023/12/25 18:28:24;;;;;;;17.03;11.23;;;;;;;;;;10426913;28;20053;-80
2023/12/25 18:33:25;;;;;;;15.70;9.40;;;;;;;;;;10426407;28;20033;-80
2023/12/25 18:38:26;;;;;;;16.93;9.47;;;;;;;;;;10427213;28;20037;-80
2023/12/25 18:43:27;;;;;;;20.77;11.20;;;;;;;;;;10445974;28;20621;-85
2023/12/25 18:48:54;;;;;;;19.07;10.17;;;;;;;;;;10444674;28;20116;-83
2023/12/25 18:53:55;;;;;;;17.97;10.67;;;;;;;;;;10426455;28;20120;-80
2023/12/25 18:59:02;;;;;;;19.87;12.37;;;;;;;;;;10427104;28;20090;-80
2023/12/25 19:04:06;;;;;;;23.27;13.43;;;;;;;;;;10423684;28;20037;-81
2023/12/25 19:09:07;;;;;;;27.93;15.10;;;;;;;;;;10424039;28;20052;-81
2023/12/25 19:14:08;;;;;;;24.20;14.15;;;;;;;;;;10428825;28;20033;-81
2023/12/25 19:19:10;;;;;;;25.30;13.77;;;;;;;;;;10444571;28;20037;-81
2023/12/25 19:24:48;;;;;;;29.63;14.43;;;;;;;;;;10448225;28;20061;-83
2023/12/25 19:29:49;;;;;;;24.07;13.27;;;;;;;;;;10430036;28;20040;-79
2023/12/25 19:34:50;;;;;;;21.50;12.00;;;;;;;;;;10449842;28;20029;-81
2023/12/25 19:39:58;;;;;;;22.63;12.13;;;;;;;;;;10439739;28;20087;-84
2023/12/25 19:44:59;;;;;;;20.20;11.10;;;;;;;;;;10429718;28;20037;-80
2023/12/25 19:50:00;;;;;;;19.00;9.97;;;;;;;;;;10435611;28;20109;-84
2023/12/25 19:55:21;;;;;;;29.07;9.23;;;;;;;;;;10445910;28;20035;-81
2023/12/25 20:00:23;;;;;;;22.53;9.10;;;;;;;;;;10426080;28;20084;-83
2023/12/25 20:05:24;;;;;;;22.90;8.37;;;;;;;;;;10430317;28;20029;-81
2023/12/25 20:10:49;;;;;;;16.87;5.60;;;;;;;;;;10400040;28;20059;-81
2023/12/25 20:15:50;;;;;;;22.30;5.73;;;;;;;;;;10431937;28;20052;-81
2023/12/25 20:20:51;;;;;;;22.67;6.30;;;;;;;;;;10420780;28;20485;-80
2023/12/25 20:25:59;;;;;;;28.70;9.17;;;;;;;;;;10445847;28;20057;-79
2023/12/25 20:31:00;;;;;;;16.93;7.10;;;;;;;;;;10431515;28;20657;-81
2023/12/25 20:36:02;;;;;;;9.43;5.07;;;;;;;;;;10427050;28;20080;-79
2023/12/25 20:41:03;;;;;;;14.97;7.17;;;;;;;;;;10424685;28;20036;-83
2023/12/25 20:46:05;;;;;;;13.87;7.60;;;;;;;;;;10419827;28;20021;-84
2023/12/25 20:51:06;;;;;;;33.97;13.30;;;;;;;;;;10431764;28;20033;-83
2023/12/25 20:56:07;;;;;;;21.90;10.10;;;;;;;;;;10414923;28;20029;-81
2023/12/25 21:01:08;;;;;;;22.47;10.00;;;;;;;;;;10431136;28;20127;-84
2023/12/25 21:06:15;;;;;;;18.00;8.37;;;;;;;;;;10440281;28;20111;-84
2023/12/25 21:11:21;;;;;;;18.03;8.43;;;;;;;;;;10443800;28;20067;-82
2023/12/25 21:16:23;;;;;;;19.40;10.27;;;;;;;;;;10433002;28;20127;-85
2023/12/25 21:21:24;;;;;;;18.70;9.97;;;;;;;;;;10412855;28;20041;-81
2023/12/25 21:26:25;;;;;;;16.77;10.57;;;;;;;;;;10445081;28;20048;-82
2023/12/25 21:31:33;;;;;;;17.57;11.10;;;;;;;;;;10428351;28;20376;-81
2023/12/25 21:36:35;;;;;;;21.03;13.60;;;;;;;;;;10435149;28;20727;-82
2023/12/25 21:41:36;;;;;;;22.43;13.10;;;;;;;;;;10420371;28;20108;-83
2023/12/25 21:46:39;;;;;;;25.53;15.13;;;;;;;;;;10422883;28;20032;-83
2023/12/25 21:51:41;;;;;;;23.77;14.27;;;;;;;;;;10430979;28;20082;-83
2023/12/25 21:56:42;;;;;;;28.87;15.93;;;;;;;;;;10427856;28;20052;-79
2023/12/25 22:01:43;;;;;;;32.57;18.27;;;;;;;;;;10429909;28;20040;-82
2023/12/25 22:06:44;;;;;;;39.20;21.07;;;;;;;;;;10418389;28;20029;-84
2023/12/25 22:11:46;;;;;;;62.87;31.67;;;;;;;;;;10423274;28;20039;-82
2023/12/25 22:16:47;;;;;;;35.97;20.23;;;;;;;;;;10415060;28;20095;-81
2023/12/25 22:21:49;;;;;;;26.53;16.70;;;;;;;;;;10423709;28;20094;-81
2023/12/25 22:26:50;;;;;;;26.03;14.63;;;;;;;;;;10399198;28;20058;-81
2023/12/25 22:31:51;;;;;;;22.30;14.20;;;;;;;;;;10419853;28;20062;-83
2023/12/25 22:36:52;;;;;;;20.83;11.73;;;;;;;;;;10428006;28;20032;-85
2023/12/25 22:41:53;;;;;;;23.37;12.93;;;;;;;;;;10423735;28;20041;-82
2023/12/25 22:46:54;;;;;;;24.40;14.33;;;;;;;;;;10443816;28;20033;-81
2023/12/25 22:51:55;;;;;;;25.73;14.47;;;;;;;;;;10442316;28;20116;-81
2023/12/25 22:56:59;;;;;;;28.67;15.13;;;;;;;;;;10431398;28;20034;-83
2023/12/25 23:02:02;;;;;;;25.07;14.33;;;;;;;;;;10450090;28;20032;-82
2023/12/25 23:07:03;;;;;;;29.90;15.93;;;;;;;;;;10429306;28;20047;-81
2023/12/25 23:12:05;;;;;;;32.03;17.03;;;;;;;;;;10444127;28;20033;-82
2023/12/25 23:17:07;;;;;;;29.93;16.77;;;;;;;;;;10439887;28;20037;-82
2023/12/25 23:22:08;;;;;;;27.17;15.97;;;;;;;;;;10444591;28;20041;-83
2023/12/25 23:27:09;;;;;;;30.40;17.13;;;;;;;;;;10446110;28;20057;-83
2023/12/25 23:32:10;;;;;;;33.93;18.20;;;;;;;;;;10432212;28;20047;-81
2023/12/25 23:37:11;;;;;;;28.07;16.70;;;;;;;;;;10438350;28;20060;-82
2023/12/25 23:42:12;;;;;;;24.87;15.07;;;;;;;;;;10446248;28;20107;-82
2023/12/25 23:47:13;;;;;;;58.23;34.27;;;;;;;;;;10434540;28;20360;-82
2023/12/25 23:52:14;;;;;;;46.57;28.13;;;;;;;;;;10446966;28;20029;-82
2023/12/25 23:57:16;;;;;;;60.80;38.00;;;;;;;;;;10439634;28;20495;-81
